This is the latest recevied weather packets stored in our database for station/object KD5UMO-1. If no packets are shown the sender has not sent any weather packets the latest 10 day(s).
| Time | Temp. | Humidity | Pressure | Rain* | Wind** | Luminosity | Snow |
|---|---|---|---|---|---|---|---|
| 1778013330 | 31.11° C | 58% | 1004.7 hPa | 0 mm | - | 433 W/m² | - |
| 1778013027 | 32.22° C | 57% | 1004.7 hPa | 0 mm | - | 667 W/m² | - |
| 1778012723 | 31.67° C | 58% | 1004.7 hPa | 0 mm | - | 831 W/m² | - |
| 1778012419 | 31.11° C | 60% | 1004.8 hPa | 0 mm | - | 828 W/m² | - |
| 1778012116 | 31.11° C | 60% | 1004.6 hPa | 0 mm | - | 800 W/m² | - |
| 1778011813 | 30.56° C | 60% | 1004.7 hPa | 0 mm | - | 345 W/m² | - |
| 1778011511 | 30.56° C | 60% | 1004.6 hPa | 0 mm | - | 266 W/m² | - |
| 1778011208 | 31.11° C | 58% | 1004.8 hPa | 0 mm | - | 813 W/m² | - |
| 1778010903 | 30.56° C | 61% | 1004.6 hPa | 0 mm | - | 548 W/m² | - |
| 1778010601 | 30.56° C | 60% | 1004.7 hPa | 0 mm | - | 809 W/m² | - |
| 1778010298 | 30.56° C | 60% | 1004.6 hPa | 0 mm | - | 794 W/m² | - |
| 1778009998 | 30.56° C | 60% | 1005 hPa | 0 mm | - | 806 W/m² | - |
| 1778009696 | 30.56° C | 61% | 1005 hPa | 0 mm | - | 743 W/m² | - |
| 1778009393 | 30.56° C | 61% | 1004.8 hPa | 0 mm | - | 850 W/m² | - |
| 1778009092 | 29.44° C | 63% | 1004.8 hPa | 0 mm | - | 905 W/m² | - |
| 1778008788 | 30° C | 63% | 1004.8 hPa | 0 mm | - | 791 W/m² | - |
| 1778008487 | 30° C | 63% | 1004.9 hPa | 0 mm | - | 950 W/m² | - |
| 1778008184 | 30° C | 63% | 1004.8 hPa | 0 mm | - | 827 W/m² | - |
| 1778007879 | 30° C | 62% | 1004.8 hPa | 0 mm | - | 679 W/m² | - |
| 1778007574 | 29.44° C | 65% | 1005 hPa | 0 mm | - | 745 W/m² | - |
| 1778007272 | 28.89° C | 66% | 1005 hPa | 0 mm | - | 859 W/m² | - |
| 1778006968 | 28.89° C | 65% | 1005 hPa | 0 mm | - | 542 W/m² | - |
| 1778006665 | 28.89° C | 66% | 1005.1 hPa | 0 mm | - | 492 W/m² | - |
| 1778006362 | 28.33° C | 66% | 1005 hPa | 0 mm | - | 482 W/m² | - |
| 1778006059 | 28.89° C | 66% | 1005.2 hPa | 0 mm | - | 471 W/m² | - |
* Rain latest hour (hover to see other rain measurements)
** Current wind speed in m/s (hover to see current wind gust speed)